createdAt,value
2019-05-02T00:01:54.326Z,19.77
2019-05-02T00:04:24.490Z,19.10
2019-05-02T00:07:08.661Z,17.62
2019-05-02T00:09:47.221Z,19.87
2019-05-02T00:12:11.639Z,19.48
2019-05-02T00:14:39.538Z,20.27
2019-05-02T00:17:08.497Z,20.85
2019-05-02T00:19:37.058Z,18.52
2019-05-02T00:22:12.280Z,21.70
2019-05-02T00:24:39.349Z,19.77
2019-05-02T00:27:08.502Z,20.97
2019-05-02T00:29:36.487Z,20.60
2019-05-02T00:32:04.675Z,21.75
2019-05-02T00:34:44.838Z,19.67
2019-05-02T00:37:12.910Z,20.35
2019-05-02T00:39:45.204Z,19.35
2019-05-02T00:42:17.533Z,19.50
2019-05-02T00:44:49.989Z,20.62
2019-05-02T00:47:26.476Z,19.07
2019-05-02T00:50:00.160Z,20.20
2019-05-02T00:52:32.920Z,19.70
2019-05-02T00:54:58.706Z,20.17
2019-05-02T00:57:26.809Z,18.50
2019-05-02T00:59:56.633Z,19.65
2019-05-02T01:02:41.719Z,19.10
2019-05-02T01:05:09.881Z,19.15
2019-05-02T01:07:40.184Z,19.57
2019-05-02T01:10:09.694Z,19.50
2019-05-02T01:12:39.823Z,18.82
2019-05-02T01:15:09.768Z,20.05
2019-05-02T01:17:38.179Z,18.65
2019-05-02T01:20:09.591Z,20.57
2019-05-02T01:22:52.281Z,20.82
2019-05-02T01:25:17.839Z,21.90
2019-05-02T01:28:12.624Z,19.82
2019-05-02T01:31:04.954Z,19.40
2019-05-02T01:33:43.626Z,18.70
2019-05-02T01:36:19.275Z,21.40
2019-05-02T01:38:49.057Z,19.92
2019-05-02T01:41:16.952Z,19.98
2019-05-02T01:43:44.882Z,21.77
2019-05-02T01:46:17.201Z,21.10
2019-05-02T01:48:45.894Z,21.95
2019-05-02T01:51:13.497Z,21.07
2019-05-02T01:53:44.665Z,20.55
2019-05-02T01:56:12.634Z,21.73
2019-05-02T01:58:40.485Z,20.92
2019-05-02T02:01:09.172Z,20.60
2019-05-02T02:03:40.508Z,22.55
2019-05-02T02:06:10.082Z,22.52
2019-05-02T02:08:38.680Z,22.98
2019-05-02T02:11:09.319Z,24.85
2019-05-02T02:13:38.675Z,23.65
2019-05-02T02:16:08.576Z,23.38
2019-05-02T02:18:48.832Z,23.07
2019-05-02T02:21:25.553Z,23.02
2019-05-02T02:24:14.366Z,21.68
2019-05-02T02:26:43.711Z,22.75
2019-05-02T02:29:11.995Z,21.97
2019-05-02T02:31:46.886Z,23.30
2019-05-02T02:34:32.416Z,21.50
2019-05-02T02:37:05.336Z,23.65
2019-05-02T02:39:31.013Z,21.17
2019-05-02T02:42:00.732Z,23.15
2019-05-02T02:44:47.627Z,22.65
2019-05-02T02:47:18.768Z,24.27
2019-05-02T02:49:49.311Z,22.00
2019-05-02T02:52:17.165Z,23.22
2019-05-02T02:54:45.112Z,23.10
2019-05-02T02:57:21.898Z,23.57
2019-05-02T02:59:42.671Z,21.23
2019-05-02T03:02:12.140Z,21.15
2019-05-02T03:04:44.092Z,22.58
2019-05-02T03:07:11.343Z,24.35
2019-05-02T03:09:39.440Z,23.98
2019-05-02T03:12:27.423Z,23.70
2019-05-02T03:14:56.906Z,24.75
2019-05-02T03:17:28.698Z,26.07
2019-05-02T03:20:01.170Z,24.35
2019-05-02T03:22:25.899Z,24.00
2019-05-02T03:24:53.796Z,25.27
2019-05-02T03:27:21.765Z,26.70
2019-05-02T03:29:49.805Z,24.27
2019-05-02T03:32:32.250Z,24.60
2019-05-02T03:34:53.473Z,25.50
2019-05-02T03:37:21.494Z,25.35
2019-05-02T03:39:56.972Z,23.73
2019-05-02T03:42:19.100Z,24.35
2019-05-02T03:44:54.600Z,26.48
2019-05-02T03:47:21.037Z,28.12
2019-05-02T03:49:51.743Z,27.52
2019-05-02T03:52:18.540Z,27.13
2019-05-02T03:54:50.174Z,26.60
2019-05-02T03:57:32.143Z,25.25
2019-05-02T03:59:48.922Z,25.45
2019-05-02T04:02:20.306Z,26.48
2019-05-02T04:04:47.228Z,26.40
2019-05-02T04:07:17.951Z,28.17
2019-05-02T04:09:52.886Z,26.35
2019-05-02T04:12:21.903Z,25.88
2019-05-02T04:14:55.455Z,26.57
2019-05-02T04:17:22.117Z,27.07
2019-05-02T04:19:51.103Z,25.92
2019-05-02T04:22:19.347Z,25.20
2019-05-02T04:24:54.410Z,28.12
2019-05-02T04:27:17.011Z,25.15
2019-05-02T04:29:45.022Z,29.60
2019-05-02T04:32:15.872Z,26.10
2019-05-02T04:34:49.116Z,26.60
2019-05-02T04:37:14.272Z,26.40
2019-05-02T04:39:42.189Z,27.62
2019-05-02T04:42:19.502Z,26.50
2019-05-02T04:44:47.859Z,29.07
2019-05-02T04:47:16.659Z,25.45
2019-05-02T04:49:39.640Z,24.85
2019-05-02T04:52:11.582Z,26.12
2019-05-02T04:54:38.920Z,25.80
2019-05-02T04:57:08.457Z,25.37
2019-05-02T04:59:39.206Z,26.27
2019-05-02T05:02:09.109Z,29.05
2019-05-02T05:04:42.001Z,25.40
2019-05-02T05:07:09.385Z,26.05
2019-05-02T05:09:39.520Z,28.12
2019-05-02T05:12:07.143Z,25.72
2019-05-02T05:14:41.299Z,25.80
2019-05-02T05:17:04.846Z,24.72
2019-05-02T05:19:32.970Z,25.25
2019-05-02T05:22:04.745Z,24.07
2019-05-02T05:24:45.388Z,24.60
2019-05-02T05:27:18.155Z,28.23
2019-05-02T05:29:45.796Z,24.10
2019-05-02T05:32:12.951Z,24.87
2019-05-02T05:34:43.114Z,25.48
2019-05-02T05:37:13.409Z,25.75
2019-05-02T05:39:43.226Z,25.27
2019-05-02T05:42:10.803Z,24.87
2019-05-02T05:44:39.910Z,24.57
2019-05-02T05:47:12.051Z,26.23
2019-05-02T05:49:40.094Z,24.65
2019-05-02T05:52:08.184Z,25.50
2019-05-02T05:54:41.893Z,25.08
2019-05-02T05:57:12.111Z,24.40
2019-05-02T05:59:41.792Z,26.05
2019-05-02T06:02:12.705Z,24.90
2019-05-02T06:04:39.180Z,25.43
2019-05-02T06:07:07.341Z,26.10
2019-05-02T06:09:35.286Z,26.30
2019-05-02T06:12:03.142Z,24.67
2019-05-02T06:14:30.947Z,23.50
2019-05-02T06:16:58.808Z,25.37
2019-05-02T06:19:26.671Z,21.90
2019-05-02T06:21:54.738Z,23.85
2019-05-02T06:24:22.687Z,24.25
2019-05-02T06:26:51.788Z,24.45
2019-05-02T06:29:20.886Z,28.32
2019-05-02T06:31:48.930Z,27.13
2019-05-02T06:34:16.771Z,26.65
2019-05-02T06:36:44.602Z,25.90
2019-05-02T06:39:12.466Z,27.27
2019-05-02T06:41:40.309Z,22.93
2019-05-02T06:44:10.295Z,24.85
2019-05-02T06:46:37.703Z,24.15
2019-05-02T06:49:05.546Z,24.25
2019-05-02T06:51:33.408Z,23.60
2019-05-02T06:54:01.237Z,26.80
2019-05-02T06:56:29.049Z,25.00
2019-05-02T06:58:57.058Z,24.35
2019-05-02T07:01:24.882Z,25.77
2019-05-02T07:03:52.732Z,23.75
2019-05-02T07:06:20.679Z,24.95
2019-05-02T07:08:48.774Z,24.37
2019-05-02T07:11:16.655Z,23.27
2019-05-02T07:13:44.509Z,24.52
2019-05-02T07:16:37.193Z,25.72
2019-05-02T07:18:58.805Z,24.00
2019-05-02T07:21:26.629Z,26.23
2019-05-02T07:23:55.216Z,26.20
2019-05-02T07:26:23.480Z,26.12
2019-05-02T07:28:51.497Z,26.42
2019-05-02T07:31:19.292Z,29.85
2019-05-02T07:33:47.132Z,25.35
2019-05-02T07:36:14.982Z,26.60
2019-05-02T07:38:42.822Z,25.50
2019-05-02T07:41:10.817Z,27.45
2019-05-02T07:43:38.643Z,26.57
2019-05-02T07:46:06.510Z,24.35
2019-05-02T07:48:34.351Z,26.05
2019-05-02T07:51:02.206Z,27.30
2019-05-02T07:53:30.026Z,25.35
2019-05-02T07:55:57.879Z,25.77
2019-05-02T07:58:25.694Z,26.50
2019-05-02T08:00:53.546Z,26.52
2019-05-02T08:03:21.350Z,28.02
2019-05-02T08:05:49.203Z,26.20
2019-05-02T08:08:17.059Z,26.73
2019-05-02T08:10:44.997Z,25.92
2019-05-02T08:13:17.428Z,27.95
2019-05-02T08:15:45.727Z,28.52
2019-05-02T08:18:12.007Z,29.48
2019-05-02T08:20:39.889Z,27.15
2019-05-02T08:23:07.714Z,25.27
2019-05-02T08:25:35.601Z,28.30
2019-05-02T08:28:18.213Z,27.82
2019-05-02T08:30:50.774Z,28.70
2019-05-02T08:33:18.604Z,26.70
2019-05-02T08:35:46.442Z,30.00
2019-05-02T08:38:17.841Z,27.20
2019-05-02T08:40:47.742Z,28.92
2019-05-02T08:43:13.409Z,27.07
2019-05-02T08:45:41.262Z,30.08
2019-05-02T08:48:09.122Z,27.90
2019-05-02T08:50:36.922Z,29.25
2019-05-02T08:53:05.062Z,29.35
2019-05-02T08:55:32.886Z,27.95
2019-05-02T08:58:00.738Z,28.17
2019-05-02T09:00:32.236Z,29.27
2019-05-02T09:03:02.691Z,29.23
2019-05-02T09:05:27.778Z,27.67
2019-05-02T09:07:55.608Z,28.25
2019-05-02T09:10:23.423Z,28.20
2019-05-02T09:12:52.100Z,28.87
2019-05-02T09:15:22.191Z,26.57
2019-05-02T09:17:53.059Z,26.97
2019-05-02T09:20:20.918Z,27.13
2019-05-02T09:22:52.126Z,26.85
2019-05-02T09:25:21.825Z,27.05
2019-05-02T09:27:49.325Z,27.52
2019-05-02T09:30:21.887Z,25.23
2019-05-02T09:32:46.953Z,28.35
2019-05-02T09:35:14.825Z,27.00
2019-05-02T09:37:42.782Z,26.85
2019-05-02T09:40:12.601Z,27.50
2019-05-02T09:42:42.782Z,27.00
2019-05-02T09:45:16.024Z,24.32
2019-05-02T09:47:56.365Z,24.40
2019-05-02T09:50:20.454Z,24.95
2019-05-02T09:52:46.897Z,27.22
2019-05-02T09:55:15.301Z,26.45
2019-05-02T09:57:43.217Z,28.15
2019-05-02T10:00:14.395Z,26.70
2019-05-02T10:02:42.241Z,28.15
2019-05-02T10:05:12.385Z,27.90
2019-05-02T10:07:41.839Z,27.48
2019-05-02T10:10:09.859Z,27.82
2019-05-02T10:12:37.689Z,26.37
2019-05-02T10:15:09.090Z,26.52
2019-05-02T10:17:37.574Z,28.75
2019-05-02T10:20:06.570Z,27.98
2019-05-02T10:22:39.207Z,26.80
2019-05-02T10:25:04.445Z,27.98
2019-05-02T10:27:32.346Z,28.75
2019-05-02T10:30:08.054Z,30.10
2019-05-02T10:32:32.028Z,28.40
2019-05-02T10:34:59.441Z,29.60
2019-05-02T10:37:32.341Z,31.02
2019-05-02T10:39:56.892Z,28.87
2019-05-02T10:42:24.741Z,28.92
2019-05-02T10:44:52.611Z,27.85
2019-05-02T10:47:22.187Z,27.82
2019-05-02T10:50:02.156Z,26.45
2019-05-02T10:52:31.998Z,27.22
2019-05-02T10:54:59.239Z,27.25
2019-05-02T10:57:27.141Z,27.65
2019-05-02T10:59:56.225Z,27.82
2019-05-02T11:02:46.045Z,27.82
2019-05-02T11:05:16.982Z,26.52
2019-05-02T11:07:46.143Z,26.05
2019-05-02T11:10:14.390Z,24.70
2019-05-02T11:12:52.675Z,24.65
2019-05-02T11:15:42.965Z,27.45
2019-05-02T11:18:12.696Z,27.58
2019-05-02T11:20:42.074Z,26.37
2019-05-02T11:23:10.255Z,24.98
2019-05-02T11:25:38.165Z,23.32
2019-05-02T11:28:07.183Z,25.32
2019-05-02T11:30:36.702Z,24.52
2019-05-02T11:33:04.503Z,25.72
2019-05-02T11:35:32.427Z,23.25
2019-05-02T11:38:02.329Z,23.02
2019-05-02T11:40:31.627Z,24.90
2019-05-02T11:43:02.862Z,24.07
2019-05-02T11:45:29.044Z,24.10
2019-05-02T11:48:01.976Z,25.17
2019-05-02T11:50:26.727Z,25.08
2019-05-02T11:52:55.974Z,28.60
2019-05-02T11:55:28.851Z,26.40
2019-05-02T11:57:53.374Z,22.40
2019-05-02T12:00:21.832Z,26.10
2019-05-02T12:02:58.362Z,24.57
2019-05-02T12:05:35.544Z,25.27
2019-05-02T12:08:07.951Z,23.00
2019-05-02T12:10:34.817Z,26.00
2019-05-02T12:13:02.050Z,22.58
2019-05-02T12:15:29.774Z,23.65
2019-05-02T12:17:57.656Z,25.05
2019-05-02T12:20:28.638Z,22.87
2019-05-02T12:22:55.149Z,21.35
2019-05-02T12:25:23.163Z,23.30
2019-05-02T12:27:52.730Z,21.75
2019-05-02T12:30:22.763Z,23.47
2019-05-02T12:32:50.326Z,21.93
2019-05-02T12:35:18.190Z,21.27
2019-05-02T12:37:47.083Z,21.15
2019-05-02T12:40:15.699Z,21.37
2019-05-02T12:42:43.589Z,22.80
2019-05-02T12:45:12.313Z,21.10
2019-05-02T12:47:40.442Z,21.62
2019-05-02T12:50:08.257Z,20.95
2019-05-02T12:52:36.130Z,20.85
2019-05-02T12:55:04.170Z,22.98
2019-05-02T12:57:32.211Z,21.80
2019-05-02T13:00:01.865Z,20.70
2019-05-02T13:02:39.087Z,20.12
2019-05-02T13:05:06.960Z,21.97
2019-05-02T13:07:34.775Z,19.35
2019-05-02T13:10:02.632Z,18.12
2019-05-02T13:12:33.171Z,21.93
2019-05-02T13:15:02.231Z,20.30
2019-05-02T13:17:30.231Z,19.23
2019-05-02T13:20:01.508Z,19.60
2019-05-02T13:23:01.004Z,18.70
2019-05-02T13:25:32.937Z,18.40
2019-05-02T13:27:58.119Z,19.32
2019-05-02T13:30:45.279Z,19.75
2019-05-02T13:33:12.207Z,19.10
2019-05-02T13:35:43.542Z,18.57
2019-05-02T13:38:12.975Z,17.45
2019-05-02T13:40:44.656Z,18.25
2019-05-02T13:43:12.777Z,21.10
2019-05-02T13:45:56.241Z,19.73
2019-05-02T13:48:24.077Z,18.37
2019-05-02T13:50:52.339Z,19.92
2019-05-02T13:53:20.192Z,21.33
2019-05-02T13:55:54.384Z,23.55
2019-05-02T13:58:28.997Z,20.82
2019-05-02T14:00:52.876Z,20.10
2019-05-02T14:03:22.563Z,18.62
2019-05-02T14:05:51.751Z,20.25
2019-05-02T14:08:45.039Z,18.40
2019-05-02T14:11:31.764Z,17.73
2019-05-02T14:14:01.740Z,18.40
2019-05-02T14:16:29.472Z,20.08
2019-05-02T14:18:57.298Z,18.23
2019-05-02T14:21:25.179Z,20.30
2019-05-02T14:23:53.016Z,20.65
2019-05-02T14:26:29.611Z,18.57
2019-05-02T14:28:50.582Z,20.95
2019-05-02T14:31:18.443Z,19.30
2019-05-02T14:34:05.285Z,19.42
2019-05-02T14:36:33.131Z,17.50
2019-05-02T14:39:02.342Z,19.07
2019-05-02T14:41:38.880Z,18.07
2019-05-02T14:44:00.275Z,17.45
2019-05-02T14:46:34.142Z,19.37
2019-05-02T14:48:57.671Z,19.07
2019-05-02T14:51:27.729Z,21.33
2019-05-02T14:53:57.399Z,24.37
2019-05-02T14:56:32.703Z,26.62
2019-05-02T14:59:02.495Z,31.17
2019-05-02T15:01:29.835Z,33.85
2019-05-02T15:03:58.294Z,32.05
2019-05-02T15:06:27.278Z,26.85
2019-05-02T15:08:55.135Z,29.72
2019-05-02T15:11:30.419Z,27.95
2019-05-02T15:13:52.623Z,28.95
2019-05-02T15:16:23.058Z,28.47
2019-05-02T15:18:53.134Z,29.12
2019-05-02T15:21:22.628Z,29.35
2019-05-02T15:23:54.328Z,30.48
2019-05-02T15:26:19.854Z,30.88
2019-05-02T15:28:47.698Z,29.92
2019-05-02T15:31:24.263Z,28.62
2019-05-02T15:34:01.587Z,29.77
2019-05-02T15:36:27.406Z,30.20
2019-05-02T15:38:55.255Z,27.82
2019-05-02T15:41:23.086Z,29.37
2019-05-02T15:43:52.357Z,29.55
2019-05-02T15:46:26.960Z,29.50
2019-05-02T15:48:51.645Z,29.75
2019-05-02T15:51:19.528Z,31.87
2019-05-02T15:54:08.660Z,29.50
2019-05-02T15:56:52.542Z,32.23
2019-05-02T15:59:32.418Z,31.50
2019-05-02T16:02:02.899Z,32.00
2019-05-02T16:04:34.486Z,34.58
2019-05-02T16:07:07.170Z,33.25
2019-05-02T16:09:32.977Z,34.63
2019-05-02T16:12:00.883Z,34.58
2019-05-02T16:14:34.123Z,35.23
2019-05-02T16:17:00.992Z,32.20
2019-05-02T16:19:29.700Z,34.67
2019-05-02T16:22:06.684Z,33.15
2019-05-02T16:24:32.888Z,37.33
2019-05-02T16:27:01.630Z,34.90
2019-05-02T16:29:31.716Z,36.03
2019-05-02T16:32:22.756Z,34.48
2019-05-02T16:34:58.654Z,37.98
2019-05-02T16:37:26.477Z,38.85
2019-05-02T16:39:54.338Z,37.17
2019-05-02T16:42:22.730Z,37.88
2019-05-02T16:44:52.234Z,37.98
2019-05-02T16:47:21.863Z,39.55
2019-05-02T16:49:54.700Z,38.75
2019-05-02T16:52:19.616Z,37.00
2019-05-02T16:54:47.494Z,36.42
2019-05-02T16:57:17.407Z,38.55
2019-05-02T16:59:44.955Z,37.25
2019-05-02T17:02:12.860Z,37.63
2019-05-02T17:04:42.518Z,38.33
2019-05-02T17:07:16.621Z,39.55
2019-05-02T17:10:02.596Z,37.67
2019-05-02T17:12:31.717Z,37.58
2019-05-02T17:15:17.269Z,38.88
2019-05-02T17:17:45.133Z,36.30
2019-05-02T17:20:16.682Z,35.13
2019-05-02T17:22:43.921Z,34.15
2019-05-02T17:25:12.865Z,34.08
2019-05-02T17:27:42.301Z,34.40
2019-05-02T17:30:12.069Z,34.60
2019-05-02T17:32:41.550Z,32.33
2019-05-02T17:35:11.340Z,32.90
2019-05-02T17:37:40.654Z,34.03
2019-05-02T17:40:09.263Z,33.92
2019-05-02T17:42:37.113Z,34.60
2019-05-02T17:45:05.082Z,32.83
2019-05-02T17:47:36.050Z,32.93
2019-05-02T17:50:07.266Z,33.42
2019-05-02T17:52:42.749Z,34.23
2019-05-02T17:55:12.106Z,29.35
2019-05-02T17:57:41.894Z,29.27
2019-05-02T18:00:16.857Z,28.62
2019-05-02T18:02:46.847Z,28.67
2019-05-02T18:05:17.153Z,30.72
2019-05-02T18:07:47.419Z,34.38
2019-05-02T18:10:21.984Z,31.37
2019-05-02T18:12:55.866Z,32.85
2019-05-02T18:15:22.691Z,36.10
2019-05-02T18:17:52.203Z,35.90
2019-05-02T18:20:25.431Z,35.75
2019-05-02T18:22:53.556Z,33.63
2019-05-02T18:25:25.268Z,33.78
2019-05-02T18:27:53.382Z,32.83
2019-05-02T18:30:26.728Z,32.60
2019-05-02T18:32:57.619Z,33.40
2019-05-02T18:35:23.800Z,30.88
2019-05-02T18:37:51.874Z,30.65
2019-05-02T18:40:27.797Z,30.80
2019-05-02T18:42:51.919Z,30.45
2019-05-02T18:45:25.377Z,29.70
2019-05-02T18:48:06.694Z,32.00
2019-05-02T18:50:37.012Z,30.88
2019-05-02T18:53:06.263Z,29.80
2019-05-02T18:55:42.021Z,30.08
2019-05-02T18:58:10.226Z,26.95
2019-05-02T19:00:39.609Z,28.60
2019-05-02T19:03:13.307Z,28.47
2019-05-02T19:05:39.179Z,27.37
2019-05-02T19:08:09.450Z,26.52
2019-05-02T19:10:44.731Z,28.02
2019-05-02T19:13:07.591Z,26.60
2019-05-02T19:15:39.505Z,28.25
2019-05-02T19:18:10.570Z,28.65
2019-05-02T19:21:07.432Z,27.75
2019-05-02T19:23:37.235Z,27.07
2019-05-02T19:26:09.928Z,25.90
2019-05-02T19:29:15.678Z,27.70
2019-05-02T19:31:53.540Z,27.50
2019-05-02T19:34:26.742Z,26.57
2019-05-02T19:36:53.040Z,26.52
2019-05-02T19:39:28.493Z,25.25
2019-05-02T19:41:56.503Z,23.75
2019-05-02T19:44:29.023Z,23.05
2019-05-02T19:46:56.281Z,23.12
2019-05-02T19:49:27.986Z,24.67
2019-05-02T19:51:58.132Z,22.90
2019-05-02T19:54:33.552Z,21.87
2019-05-02T19:56:56.952Z,22.45
2019-05-02T19:59:32.098Z,20.60
2019-05-02T20:02:02.451Z,21.57
2019-05-02T20:04:37.804Z,22.35
2019-05-02T20:07:04.262Z,21.40
2019-05-02T20:09:32.465Z,21.70
2019-05-02T20:12:07.588Z,22.42
2019-05-02T20:14:32.164Z,21.55
2019-05-02T20:17:02.205Z,22.42
2019-05-02T20:19:34.968Z,22.95
2019-05-02T20:22:15.979Z,21.40
2019-05-02T20:25:00.275Z,21.82
2019-05-02T20:27:28.200Z,20.52
2019-05-02T20:30:00.064Z,21.55
2019-05-02T20:32:32.140Z,21.62
2019-05-02T20:35:01.566Z,20.25
2019-05-02T20:37:29.494Z,19.73
2019-05-02T20:39:57.469Z,20.23
2019-05-02T20:42:25.414Z,20.52
2019-05-02T20:44:56.035Z,20.70
2019-05-02T20:47:24.775Z,18.23
2019-05-02T20:49:52.998Z,19.35
2019-05-02T20:52:22.731Z,20.10
2019-05-02T20:54:52.378Z,18.65
2019-05-02T20:57:21.019Z,17.87
2019-05-02T20:59:52.548Z,18.80
2019-05-02T21:02:20.904Z,18.62
2019-05-02T21:04:48.974Z,17.77
2019-05-02T21:07:28.962Z,17.50
2019-05-02T21:10:09.026Z,15.68
2019-05-02T21:12:38.227Z,16.30
2019-05-02T21:15:08.070Z,16.90
2019-05-02T21:17:36.501Z,18.05
2019-05-02T21:20:05.160Z,16.32
2019-05-02T21:22:34.269Z,15.78
2019-05-02T21:25:02.508Z,15.53
2019-05-02T21:27:32.414Z,14.15
2019-05-02T21:30:00.674Z,15.10
2019-05-02T21:32:28.986Z,14.18
2019-05-02T21:34:58.011Z,12.70
2019-05-02T21:37:31.839Z,12.78
2019-05-02T21:39:59.342Z,11.45
2019-05-02T21:42:27.267Z,10.43
2019-05-02T21:44:56.448Z,10.00
2019-05-02T21:47:24.491Z,9.93
2019-05-02T21:49:58.773Z,10.35
2019-05-02T21:52:34.904Z,9.35
2019-05-02T21:55:32.262Z,10.05
2019-05-02T21:58:00.091Z,9.30
2019-05-02T22:00:46.255Z,9.55
2019-05-02T22:03:14.172Z,9.60
2019-05-02T22:05:42.387Z,8.10
2019-05-02T22:08:12.523Z,9.10
2019-05-02T22:10:42.565Z,8.18
2019-05-02T22:13:10.400Z,7.97
2019-05-02T22:15:38.410Z,7.45
2019-05-02T22:18:06.345Z,8.48
2019-05-02T22:20:34.783Z,8.58
2019-05-02T22:23:02.691Z,7.10
2019-05-02T22:25:32.631Z,7.85
2019-05-02T22:28:01.978Z,6.78
2019-05-02T22:30:29.822Z,7.05
2019-05-02T22:32:58.069Z,7.65
2019-05-02T22:35:25.990Z,7.37
2019-05-02T22:37:56.063Z,7.42
2019-05-02T22:40:25.794Z,6.05
2019-05-02T22:42:53.727Z,6.00
2019-05-02T22:45:23.895Z,6.40
2019-05-02T22:47:53.606Z,6.55
2019-05-02T22:50:22.576Z,7.03
2019-05-02T22:52:52.700Z,6.12
2019-05-02T22:55:22.454Z,6.72
2019-05-02T22:57:51.862Z,7.10
2019-05-02T23:00:21.649Z,6.55
2019-05-02T23:02:52.781Z,6.33
2019-05-02T23:05:20.681Z,6.85
2019-05-02T23:07:48.595Z,5.00
2019-05-02T23:10:18.496Z,5.45
2019-05-02T23:12:47.927Z,6.03
2019-05-02T23:15:15.942Z,5.10
2019-05-02T23:17:43.865Z,4.75
2019-05-02T23:20:12.813Z,5.30
2019-05-02T23:22:42.262Z,5.95
2019-05-02T23:25:27.773Z,5.00
2019-05-02T23:28:02.544Z,5.05
2019-05-02T23:30:34.986Z,5.78
2019-05-02T23:33:03.203Z,4.60
2019-05-02T23:35:32.008Z,4.75
2019-05-02T23:38:02.129Z,5.78
2019-05-02T23:40:32.261Z,4.83
2019-05-02T23:43:01.823Z,5.25
2019-05-02T23:45:31.208Z,4.30
2019-05-02T23:48:02.180Z,5.03
2019-05-02T23:50:31.862Z,5.00
2019-05-02T23:53:02.159Z,4.40
2019-05-02T23:55:29.829Z,4.75
2019-05-02T23:57:59.358Z,4.40
